sensor_id;sensor_type;location;lat;lon;timestamp;P1;P2;P0
67892;PMS7003;54688;52.376;16.744;2023-10-19T00:02:04;64;50;
67892;PMS7003;54688;52.376;16.744;2023-10-19T00:05:07;63;49;
67892;PMS7003;54688;52.376;16.744;2023-10-19T00:08:09;64;49;
67892;PMS7003;54688;52.376;16.744;2023-10-19T00:11:11;63;47;
67892;PMS7003;54688;52.376;16.744;2023-10-19T00:14:14;57;46;
67892;PMS7003;54688;52.376;16.744;2023-10-19T00:17:16;63;48;
67892;PMS7003;54688;52.376;16.744;2023-10-19T00:20:19;59;48;
67892;PMS7003;54688;52.376;16.744;2023-10-19T00:23:22;62;48;
67892;PMS7003;54688;52.376;16.744;2023-10-19T00:26:25;64;48;
67892;PMS7003;54688;52.376;16.744;2023-10-19T00:29:28;65;48;
67892;PMS7003;54688;52.376;16.744;2023-10-19T00:32:30;58;47;
67892;PMS7003;54688;52.376;16.744;2023-10-19T00:35:33;65;50;
67892;PMS7003;54688;52.376;16.744;2023-10-19T00:38:36;60;48;
67892;PMS7003;54688;52.376;16.744;2023-10-19T00:41:38;57;44;
67892;PMS7003;54688;52.376;16.744;2023-10-19T00:44:41;63;48;
67892;PMS7003;54688;52.376;16.744;2023-10-19T00:47:43;60;46;
67892;PMS7003;54688;52.376;16.744;2023-10-19T00:50:45;58;45;
67892;PMS7003;54688;52.376;16.744;2023-10-19T00:53:47;58;45;
67892;PMS7003;54688;52.376;16.744;2023-10-19T00:56:49;56;44;
67892;PMS7003;54688;52.376;16.744;2023-10-19T00:59:52;55;44;
67892;PMS7003;54688;52.376;16.744;2023-10-19T01:02:54;54;43;
67892;PMS7003;54688;52.376;16.744;2023-10-19T01:05:56;55;45;
67892;PMS7003;54688;52.376;16.744;2023-10-19T01:08:58;59;47;
67892;PMS7003;54688;52.376;16.744;2023-10-19T01:12:00;58;46;
67892;PMS7003;54688;52.376;16.744;2023-10-19T01:15:05;52;44;
67892;PMS7003;54688;52.376;16.744;2023-10-19T01:18:08;60;46;
67892;PMS7003;54688;52.376;16.744;2023-10-19T01:21:10;61;47;
67892;PMS7003;54688;52.376;16.744;2023-10-19T01:24:13;54;43;
67892;PMS7003;54688;52.376;16.744;2023-10-19T01:27:14;60;47;
67892;PMS7003;54688;52.376;16.744;2023-10-19T01:30:17;63;48;
67892;PMS7003;54688;52.376;16.744;2023-10-19T01:33:19;55;43;
67892;PMS7003;54688;52.376;16.744;2023-10-19T01:36:22;58;43;
67892;PMS7003;54688;52.376;16.744;2023-10-19T01:39:24;61;46;
67892;PMS7003;54688;52.376;16.744;2023-10-19T01:42:26;55;42;
67892;PMS7003;54688;52.376;16.744;2023-10-19T01:45:28;56;45;
67892;PMS7003;54688;52.376;16.744;2023-10-19T01:48:31;52;43;
67892;PMS7003;54688;52.376;16.744;2023-10-19T01:51:34;56;45;
67892;PMS7003;54688;52.376;16.744;2023-10-19T01:54:36;54;44;
67892;PMS7003;54688;52.376;16.744;2023-10-19T01:57:38;52;41;
67892;PMS7003;54688;52.376;16.744;2023-10-19T02:03:38;57;44;
67892;PMS7003;54688;52.376;16.744;2023-10-19T02:06:41;59;45;
67892;PMS7003;54688;52.376;16.744;2023-10-19T02:09:43;54;43;
67892;PMS7003;54688;52.376;16.744;2023-10-19T02:12:45;59;45;
67892;PMS7003;54688;52.376;16.744;2023-10-19T02:15:47;52;43;
67892;PMS7003;54688;52.376;16.744;2023-10-19T02:18:50;53;43;
67892;PMS7003;54688;52.376;16.744;2023-10-19T02:21:53;55;44;
67892;PMS7003;54688;52.376;16.744;2023-10-19T02:24:55;52;42;
67892;PMS7003;54688;52.376;16.744;2023-10-19T02:27:57;58;45;
67892;PMS7003;54688;52.376;16.744;2023-10-19T02:30:59;50;41;
67892;PMS7003;54688;52.376;16.744;2023-10-19T02:34:01;50;42;
67892;PMS7003;54688;52.376;16.744;2023-10-19T02:37:03;57;44;
67892;PMS7003;54688;52.376;16.744;2023-10-19T02:40:06;51;40;
67892;PMS7003;54688;52.376;16.744;2023-10-19T02:46:08;55;43;
67892;PMS7003;54688;52.376;16.744;2023-10-19T02:49:11;56;43;
67892;PMS7003;54688;52.376;16.744;2023-10-19T02:52:13;49;39;
67892;PMS7003;54688;52.376;16.744;2023-10-19T02:55:16;50;41;
67892;PMS7003;54688;52.376;16.744;2023-10-19T02:58:18;56;44;
67892;PMS7003;54688;52.376;16.744;2023-10-19T03:01:21;54;42;
67892;PMS7003;54688;52.376;16.744;2023-10-19T03:04:23;55;43;
67892;PMS7003;54688;52.376;16.744;2023-10-19T03:07:25;53;44;
67892;PMS7003;54688;52.376;16.744;2023-10-19T03:10:27;61;44;
67892;PMS7003;54688;52.376;16.744;2023-10-19T03:13:29;57;46;
67892;PMS7003;54688;52.376;16.744;2023-10-19T03:16:32;59;48;
67892;PMS7003;54688;52.376;16.744;2023-10-19T03:19:34;57;44;
67892;PMS7003;54688;52.376;16.744;2023-10-19T03:22:36;58;46;
67892;PMS7003;54688;52.376;16.744;2023-10-19T03:25:38;57;46;
67892;PMS7003;54688;52.376;16.744;2023-10-19T03:28:40;54;43;
67892;PMS7003;54688;52.376;16.744;2023-10-19T03:31:41;52;42;
67892;PMS7003;54688;52.376;16.744;2023-10-19T03:34:44;59;44;
67892;PMS7003;54688;52.376;16.744;2023-10-19T03:37:46;52;39;
67892;PMS7003;54688;52.376;16.744;2023-10-19T03:40:48;52;43;
67892;PMS7003;54688;52.376;16.744;2023-10-19T03:43:51;54;43;
67892;PMS7003;54688;52.376;16.744;2023-10-19T03:46:53;54;41;
67892;PMS7003;54688;52.376;16.744;2023-10-19T03:49:55;56;44;
67892;PMS7003;54688;52.376;16.744;2023-10-19T03:52:58;50;41;
67892;PMS7003;54688;52.376;16.744;2023-10-19T03:56:04;52;42;
67892;PMS7003;54688;52.376;16.744;2023-10-19T03:59:06;51;42;
67892;PMS7003;54688;52.376;16.744;2023-10-19T04:02:08;55;44;
67892;PMS7003;54688;52.376;16.744;2023-10-19T04:05:10;49;39;
67892;PMS7003;54688;52.376;16.744;2023-10-19T04:08:12;50;41;
67892;PMS7003;54688;52.376;16.744;2023-10-19T04:11:15;53;42;
67892;PMS7003;54688;52.376;16.744;2023-10-19T04:14:17;49;41;
67892;PMS7003;54688;52.376;16.744;2023-10-19T04:17:19;47;39;
67892;PMS7003;54688;52.376;16.744;2023-10-19T04:20:22;50;40;
67892;PMS7003;54688;52.376;16.744;2023-10-19T04:23:24;47;39;
67892;PMS7003;54688;52.376;16.744;2023-10-19T04:26:27;51;41;
67892;PMS7003;54688;52.376;16.744;2023-10-19T04:29:29;52;42;
67892;PMS7003;54688;52.376;16.744;2023-10-19T04:32:31;49;39;
67892;PMS7003;54688;52.376;16.744;2023-10-19T04:35:34;53;41;
67892;PMS7003;54688;52.376;16.744;2023-10-19T04:38:37;52;43;
67892;PMS7003;54688;52.376;16.744;2023-10-19T04:41:40;52;41;
67892;PMS7003;54688;52.376;16.744;2023-10-19T04:44:41;55;44;
67892;PMS7003;54688;52.376;16.744;2023-10-19T04:47:44;54;43;
67892;PMS7003;54688;52.376;16.744;2023-10-19T04:50:46;50;37;
67892;PMS7003;54688;52.376;16.744;2023-10-19T04:53:49;50;36;
67892;PMS7003;54688;52.376;16.744;2023-10-19T04:56:51;53;40;
67892;PMS7003;54688;52.376;16.744;2023-10-19T04:59:53;52;40;
67892;PMS7003;54688;52.376;16.744;2023-10-19T05:02:55;47;39;
67892;PMS7003;54688;52.376;16.744;2023-10-19T05:05:57;51;41;
67892;PMS7003;54688;52.376;16.744;2023-10-19T05:09:00;51;40;
67892;PMS7003;54688;52.376;16.744;2023-10-19T05:12:02;52;39;
67892;PMS7003;54688;52.376;16.744;2023-10-19T05:15:05;52;42;
67892;PMS7003;54688;52.376;16.744;2023-10-19T05:18:07;53;43;
67892;PMS7003;54688;52.376;16.744;2023-10-19T05:21:10;54;44;
67892;PMS7003;54688;52.376;16.744;2023-10-19T05:24:12;57;42;
67892;PMS7003;54688;52.376;16.744;2023-10-19T05:27:15;50;41;
67892;PMS7003;54688;52.376;16.744;2023-10-19T05:30:17;51;41;
67892;PMS7003;54688;52.376;16.744;2023-10-19T05:33:19;54;43;
67892;PMS7003;54688;52.376;16.744;2023-10-19T05:36:22;49;41;
67892;PMS7003;54688;52.376;16.744;2023-10-19T05:39:24;53;38;
67892;PMS7003;54688;52.376;16.744;2023-10-19T05:42:27;51;40;
67892;PMS7003;54688;52.376;16.744;2023-10-19T05:45:29;54;42;
67892;PMS7003;54688;52.376;16.744;2023-10-19T05:48:31;51;41;
67892;PMS7003;54688;52.376;16.744;2023-10-19T05:51:34;50;42;
67892;PMS7003;54688;52.376;16.744;2023-10-19T05:54:36;52;42;
67892;PMS7003;54688;52.376;16.744;2023-10-19T05:57:39;46;37;
67892;PMS7003;54688;52.376;16.744;2023-10-19T06:00:41;52;44;
67892;PMS7003;54688;52.376;16.744;2023-10-19T06:03:43;50;39;
67892;PMS7003;54688;52.376;16.744;2023-10-19T06:06:45;52;38;
67892;PMS7003;54688;52.376;16.744;2023-10-19T06:09:47;53;42;
67892;PMS7003;54688;52.376;16.744;2023-10-19T06:12:51;50;39;
67892;PMS7003;54688;52.376;16.744;2023-10-19T06:15:53;47;37;
67892;PMS7003;54688;52.376;16.744;2023-10-19T06:18:55;50;39;
67892;PMS7003;54688;52.376;16.744;2023-10-19T06:21:58;50;39;
67892;PMS7003;54688;52.376;16.744;2023-10-19T06:24:59;49;40;
67892;PMS7003;54688;52.376;16.744;2023-10-19T06:28:01;52;41;
67892;PMS7003;54688;52.376;16.744;2023-10-19T06:31:04;53;40;
67892;PMS7003;54688;52.376;16.744;2023-10-19T06:34:06;50;39;
67892;PMS7003;54688;52.376;16.744;2023-10-19T06:37:08;46;37;
67892;PMS7003;54688;52.376;16.744;2023-10-19T06:40:12;50;41;
67892;PMS7003;54688;52.376;16.744;2023-10-19T06:43:14;54;41;
67892;PMS7003;54688;52.376;16.744;2023-10-19T06:46:17;50;40;
67892;PMS7003;54688;52.376;16.744;2023-10-19T06:49:19;47;40;
67892;PMS7003;54688;52.376;16.744;2023-10-19T06:52:21;49;38;
67892;PMS7003;54688;52.376;16.744;2023-10-19T06:55:24;49;41;
67892;PMS7003;54688;52.376;16.744;2023-10-19T06:58:26;47;39;
67892;PMS7003;54688;52.376;16.744;2023-10-19T07:01:29;52;41;
67892;PMS7003;54688;52.376;16.744;2023-10-19T07:04:31;45;37;
67892;PMS7003;54688;52.376;16.744;2023-10-19T07:07:33;47;37;
67892;PMS7003;54688;52.376;16.744;2023-10-19T07:10:35;51;41;
67892;PMS7003;54688;52.376;16.744;2023-10-19T07:13:37;53;40;
67892;PMS7003;54688;52.376;16.744;2023-10-19T07:16:39;49;41;
67892;PMS7003;54688;52.376;16.744;2023-10-19T07:19:42;52;41;
67892;PMS7003;54688;52.376;16.744;2023-10-19T07:22:44;49;40;
67892;PMS7003;54688;52.376;16.744;2023-10-19T07:25:47;53;41;
67892;PMS7003;54688;52.376;16.744;2023-10-19T07:28:50;46;37;
67892;PMS7003;54688;52.376;16.744;2023-10-19T07:31:52;48;40;
67892;PMS7003;54688;52.376;16.744;2023-10-19T07:34:54;49;38;
67892;PMS7003;54688;52.376;16.744;2023-10-19T07:37:57;46;37;
67892;PMS7003;54688;52.376;16.744;2023-10-19T07:40:59;49;38;
67892;PMS7003;54688;52.376;16.744;2023-10-19T07:44:01;55;44;
67892;PMS7003;54688;52.376;16.744;2023-10-19T07:47:03;48;39;
67892;PMS7003;54688;52.376;16.744;2023-10-19T07:50:07;45;38;
67892;PMS7003;54688;52.376;16.744;2023-10-19T07:53:09;47;39;
67892;PMS7003;54688;52.376;16.744;2023-10-19T07:59:11;47;38;
67892;PMS7003;54688;52.376;16.744;2023-10-19T08:02:14;47;37;
67892;PMS7003;54688;52.376;16.744;2023-10-19T08:05:17;52;39;
67892;PMS7003;54688;52.376;16.744;2023-10-19T08:08:19;49;35;
67892;PMS7003;54688;52.376;16.744;2023-10-19T08:11:22;41;35;
67892;PMS7003;54688;52.376;16.744;2023-10-19T08:14:24;46;38;
67892;PMS7003;54688;52.376;16.744;2023-10-19T08:17:27;46;39;
67892;PMS7003;54688;52.376;16.744;2023-10-19T08:20:29;47;38;
67892;PMS7003;54688;52.376;16.744;2023-10-19T08:23:32;46;36;
67892;PMS7003;54688;52.376;16.744;2023-10-19T08:26:34;45;36;
67892;PMS7003;54688;52.376;16.744;2023-10-19T08:29:37;51;39;
67892;PMS7003;54688;52.376;16.744;2023-10-19T08:32:40;49;38;
67892;PMS7003;54688;52.376;16.744;2023-10-19T08:35:42;49;40;
67892;PMS7003;54688;52.376;16.744;2023-10-19T08:41:43;52;40;
67892;PMS7003;54688;52.376;16.744;2023-10-19T08:44:45;40;33;
67892;PMS7003;54688;52.376;16.744;2023-10-19T08:47:53;49;39;
67892;PMS7003;54688;52.376;16.744;2023-10-19T08:50:56;41;33;
67892;PMS7003;54688;52.376;16.744;2023-10-19T08:53:59;44;35;
67892;PMS7003;54688;52.376;16.744;2023-10-19T08:57:01;44;36;
67892;PMS7003;54688;52.376;16.744;2023-10-19T09:00:04;38;33;
67892;PMS7003;54688;52.376;16.744;2023-10-19T09:03:06;46;38;
67892;PMS7003;54688;52.376;16.744;2023-10-19T09:06:11;46;38;
67892;PMS7003;54688;52.376;16.744;2023-10-19T09:09:13;43;33;
67892;PMS7003;54688;52.376;16.744;2023-10-19T09:12:16;40;33;
67892;PMS7003;54688;52.376;16.744;2023-10-19T09:15:21;56;39;
67892;PMS7003;54688;52.376;16.744;2023-10-19T09:18:24;41;33;
67892;PMS7003;54688;52.376;16.744;2023-10-19T09:21:26;44;35;
67892;PMS7003;54688;52.376;16.744;2023-10-19T09:24:28;47;38;
67892;PMS7003;54688;52.376;16.744;2023-10-19T09:27:30;43;36;
67892;PMS7003;54688;52.376;16.744;2023-10-19T09:30:33;39;32;
67892;PMS7003;54688;52.376;16.744;2023-10-19T09:33:35;40;33;
67892;PMS7003;54688;52.376;16.744;2023-10-19T09:36:38;37;33;
67892;PMS7003;54688;52.376;16.744;2023-10-19T09:39:40;45;33;
67892;PMS7003;54688;52.376;16.744;2023-10-19T09:42:43;38;31;
67892;PMS7003;54688;52.376;16.744;2023-10-19T09:45:48;37;30;
67892;PMS7003;54688;52.376;16.744;2023-10-19T09:48:51;45;35;
67892;PMS7003;54688;52.376;16.744;2023-10-19T09:51:54;45;36;
67892;PMS7003;54688;52.376;16.744;2023-10-19T09:55:00;42;33;
67892;PMS7003;54688;52.376;16.744;2023-10-19T09:58:09;42;33;
67892;PMS7003;54688;52.376;16.744;2023-10-19T10:01:15;44;34;
67892;PMS7003;54688;52.376;16.744;2023-10-19T10:04:30;37;31;
67892;PMS7003;54688;52.376;16.744;2023-10-19T10:07:33;39;33;
67892;PMS7003;54688;52.376;16.744;2023-10-19T10:10:35;40;32;
67892;PMS7003;54688;52.376;16.744;2023-10-19T10:13:37;41;35;
67892;PMS7003;54688;52.376;16.744;2023-10-19T10:16:39;35;31;
67892;PMS7003;54688;52.376;16.744;2023-10-19T10:19:41;35;30;
67892;PMS7003;54688;52.376;16.744;2023-10-19T10:22:44;35;31;
67892;PMS7003;54688;52.376;16.744;2023-10-19T10:25:47;33;30;
67892;PMS7003;54688;52.376;16.744;2023-10-19T10:29:08;41;34;
67892;PMS7003;54688;52.376;16.744;2023-10-19T10:32:11;40;31;
67892;PMS7003;54688;52.376;16.744;2023-10-19T10:35:53;37;32;
67892;PMS7003;54688;52.376;16.744;2023-10-19T10:39:01;36;31;
67892;PMS7003;54688;52.376;16.744;2023-10-19T10:42:06;42;33;
67892;PMS7003;54688;52.376;16.744;2023-10-19T10:45:18;34;30;
67892;PMS7003;54688;52.376;16.744;2023-10-19T10:48:21;34;31;
67892;PMS7003;54688;52.376;16.744;2023-10-19T10:51:25;33;28;
67892;PMS7003;54688;52.376;16.744;2023-10-19T10:54:28;38;32;
67892;PMS7003;54688;52.376;16.744;2023-10-19T10:57:32;33;29;
67892;PMS7003;54688;52.376;16.744;2023-10-19T11:00:42;34;29;
67892;PMS7003;54688;52.376;16.744;2023-10-19T11:03:44;36;31;
67892;PMS7003;54688;52.376;16.744;2023-10-19T11:06:48;32;27;
67892;PMS7003;54688;52.376;16.744;2023-10-19T11:09:51;31;28;
67892;PMS7003;54688;52.376;16.744;2023-10-19T11:13:00;40;32;
67892;PMS7003;54688;52.376;16.744;2023-10-19T11:16:04;36;32;
67892;PMS7003;54688;52.376;16.744;2023-10-19T11:19:07;34;31;
67892;PMS7003;54688;52.376;16.744;2023-10-19T11:22:10;33;30;
67892;PMS7003;54688;52.376;16.744;2023-10-19T11:25:20;36;32;
67892;PMS7003;54688;52.376;16.744;2023-10-19T11:28:22;35;32;
67892;PMS7003;54688;52.376;16.744;2023-10-19T11:31:24;35;29;
67892;PMS7003;54688;52.376;16.744;2023-10-19T11:34:27;37;32;
67892;PMS7003;54688;52.376;16.744;2023-10-19T11:37:29;45;35;
67892;PMS7003;54688;52.376;16.744;2023-10-19T11:40:32;38;31;
67892;PMS7003;54688;52.376;16.744;2023-10-19T11:43:34;29;29;
67892;PMS7003;54688;52.376;16.744;2023-10-19T11:46:35;39;31;
67892;PMS7003;54688;52.376;16.744;2023-10-19T11:49:37;35;27;
67892;PMS7003;54688;52.376;16.744;2023-10-19T11:52:40;37;31;
67892;PMS7003;54688;52.376;16.744;2023-10-19T11:55:42;39;32;
67892;PMS7003;54688;52.376;16.744;2023-10-19T11:58:44;38;32;
67892;PMS7003;54688;52.376;16.744;2023-10-19T12:01:46;34;31;
67892;PMS7003;54688;52.376;16.744;2023-10-19T12:04:49;38;32;
67892;PMS7003;54688;52.376;16.744;2023-10-19T12:07:51;43;33;
67892;PMS7003;54688;52.376;16.744;2023-10-19T12:10:53;32;29;
67892;PMS7003;54688;52.376;16.744;2023-10-19T12:13:55;35;31;
67892;PMS7003;54688;52.376;16.744;2023-10-19T12:16:58;30;29;
67892;PMS7003;54688;52.376;16.744;2023-10-19T12:20:00;36;31;
67892;PMS7003;54688;52.376;16.744;2023-10-19T12:23:03;30;28;
67892;PMS7003;54688;52.376;16.744;2023-10-19T12:26:05;41;32;
67892;PMS7003;54688;52.376;16.744;2023-10-19T12:29:08;30;27;
67892;PMS7003;54688;52.376;16.744;2023-10-19T12:32:10;33;28;
67892;PMS7003;54688;52.376;16.744;2023-10-19T12:35:12;36;29;
67892;PMS7003;54688;52.376;16.744;2023-10-19T12:38:15;31;29;
67892;PMS7003;54688;52.376;16.744;2023-10-19T12:41:18;37;29;
67892;PMS7003;54688;52.376;16.744;2023-10-19T12:44:20;34;31;
67892;PMS7003;54688;52.376;16.744;2023-10-19T12:47:22;37;32;
67892;PMS7003;54688;52.376;16.744;2023-10-19T12:50:25;35;30;
67892;PMS7003;54688;52.376;16.744;2023-10-19T12:53:27;42;32;
67892;PMS7003;54688;52.376;16.744;2023-10-19T12:56:30;36;32;
67892;PMS7003;54688;52.376;16.744;2023-10-19T12:59:33;42;33;
67892;PMS7003;54688;52.376;16.744;2023-10-19T13:02:35;35;28;
67892;PMS7003;54688;52.376;16.744;2023-10-19T13:05:38;34;29;
67892;PMS7003;54688;52.376;16.744;2023-10-19T13:08:40;37;30;
67892;PMS7003;54688;52.376;16.744;2023-10-19T13:11:42;40;32;
67892;PMS7003;54688;52.376;16.744;2023-10-19T13:14:45;40;31;
67892;PMS7003;54688;52.376;16.744;2023-10-19T13:17:47;38;27;
67892;PMS7003;54688;52.376;16.744;2023-10-19T13:20:50;38;33;
67892;PMS7003;54688;52.376;16.744;2023-10-19T13:23:52;39;31;
67892;PMS7003;54688;52.376;16.744;2023-10-19T13:26:54;33;31;
67892;PMS7003;54688;52.376;16.744;2023-10-19T13:29:57;40;33;
67892;PMS7003;54688;52.376;16.744;2023-10-19T13:33:00;32;28;
67892;PMS7003;54688;52.376;16.744;2023-10-19T13:36:02;31;30;
67892;PMS7003;54688;52.376;16.744;2023-10-19T13:39:04;38;32;
67892;PMS7003;54688;52.376;16.744;2023-10-19T13:42:07;36;32;
67892;PMS7003;54688;52.376;16.744;2023-10-19T13:45:09;42;32;
67892;PMS7003;54688;52.376;16.744;2023-10-19T13:48:13;35;30;
67892;PMS7003;54688;52.376;16.744;2023-10-19T13:51:16;38;33;
67892;PMS7003;54688;52.376;16.744;2023-10-19T13:54:19;35;30;
67892;PMS7003;54688;52.376;16.744;2023-10-19T13:57:21;37;32;
67892;PMS7003;54688;52.376;16.744;2023-10-19T14:00:24;36;30;
67892;PMS7003;54688;52.376;16.744;2023-10-19T14:03:26;32;29;
67892;PMS7003;54688;52.376;16.744;2023-10-19T14:06:29;35;31;
67892;PMS7003;54688;52.376;16.744;2023-10-19T14:09:31;40;30;
67892;PMS7003;54688;52.376;16.744;2023-10-19T14:12:33;37;29;
67892;PMS7003;54688;52.376;16.744;2023-10-19T14:15:37;38;32;
67892;PMS7003;54688;52.376;16.744;2023-10-19T14:18:39;34;32;
67892;PMS7003;54688;52.376;16.744;2023-10-19T14:21:43;39;33;
67892;PMS7003;54688;52.376;16.744;2023-10-19T14:24:45;35;30;
67892;PMS7003;54688;52.376;16.744;2023-10-19T14:27:49;35;27;
67892;PMS7003;54688;52.376;16.744;2023-10-19T14:30:52;34;29;
67892;PMS7003;54688;52.376;16.744;2023-10-19T14:33:54;35;29;
67892;PMS7003;54688;52.376;16.744;2023-10-19T14:36:56;34;32;
67892;PMS7003;54688;52.376;16.744;2023-10-19T14:39:58;41;32;
67892;PMS7003;54688;52.376;16.744;2023-10-19T14:43:00;41;32;
67892;PMS7003;54688;52.376;16.744;2023-10-19T14:46:05;36;32;
67892;PMS7003;54688;52.376;16.744;2023-10-19T14:49:06;35;32;
67892;PMS7003;54688;52.376;16.744;2023-10-19T14:52:09;40;32;
67892;PMS7003;54688;52.376;16.744;2023-10-19T14:55:11;45;35;
67892;PMS7003;54688;52.376;16.744;2023-10-19T14:58:14;35;31;
67892;PMS7003;54688;52.376;16.744;2023-10-19T15:01:21;32;30;
67892;PMS7003;54688;52.376;16.744;2023-10-19T15:04:24;42;34;
67892;PMS7003;54688;52.376;16.744;2023-10-19T15:07:26;36;32;
67892;PMS7003;54688;52.376;16.744;2023-10-19T15:10:28;39;32;
67892;PMS7003;54688;52.376;16.744;2023-10-19T15:13:31;41;34;
67892;PMS7003;54688;52.376;16.744;2023-10-19T15:16:33;36;32;
67892;PMS7003;54688;52.376;16.744;2023-10-19T15:19:35;52;38;
67892;PMS7003;54688;52.376;16.744;2023-10-19T15:22:38;43;33;
67892;PMS7003;54688;52.376;16.744;2023-10-19T15:25:40;38;33;
67892;PMS7003;54688;52.376;16.744;2023-10-19T15:28:43;43;36;
67892;PMS7003;54688;52.376;16.744;2023-10-19T15:31:45;36;31;
67892;PMS7003;54688;52.376;16.744;2023-10-19T15:34:47;44;36;
67892;PMS7003;54688;52.376;16.744;2023-10-19T15:37:50;43;31;
67892;PMS7003;54688;52.376;16.744;2023-10-19T15:40:53;44;35;
67892;PMS7003;54688;52.376;16.744;2023-10-19T15:43:56;38;33;
67892;PMS7003;54688;52.376;16.744;2023-10-19T15:46:58;43;34;
67892;PMS7003;54688;52.376;16.744;2023-10-19T15:50:00;45;35;
67892;PMS7003;54688;52.376;16.744;2023-10-19T15:53:02;46;38;
67892;PMS7003;54688;52.376;16.744;2023-10-19T15:56:05;45;36;
67892;PMS7003;54688;52.376;16.744;2023-10-19T15:59:07;43;35;
67892;PMS7003;54688;52.376;16.744;2023-10-19T16:02:10;48;35;
67892;PMS7003;54688;52.376;16.744;2023-10-19T16:05:13;45;36;
67892;PMS7003;54688;52.376;16.744;2023-10-19T16:08:15;48;37;
67892;PMS7003;54688;52.376;16.744;2023-10-19T16:11:18;46;37;
67892;PMS7003;54688;52.376;16.744;2023-10-19T16:14:20;46;38;
67892;PMS7003;54688;52.376;16.744;2023-10-19T16:17:22;52;41;
67892;PMS7003;54688;52.376;16.744;2023-10-19T16:20:25;46;39;
67892;PMS7003;54688;52.376;16.744;2023-10-19T16:23:27;47;39;
67892;PMS7003;54688;52.376;16.744;2023-10-19T16:26:30;47;40;
67892;PMS7003;54688;52.376;16.744;2023-10-19T16:29:32;47;40;
67892;PMS7003;54688;52.376;16.744;2023-10-19T16:32:35;56;44;
67892;PMS7003;54688;52.376;16.744;2023-10-19T16:35:38;46;38;
67892;PMS7003;54688;52.376;16.744;2023-10-19T16:38:40;53;45;
67892;PMS7003;54688;52.376;16.744;2023-10-19T16:41:42;52;42;
67892;PMS7003;54688;52.376;16.744;2023-10-19T16:44:45;52;42;
67892;PMS7003;54688;52.376;16.744;2023-10-19T16:47:49;53;42;
67892;PMS7003;54688;52.376;16.744;2023-10-19T16:50:51;58;46;
67892;PMS7003;54688;52.376;16.744;2023-10-19T16:53:53;59;45;
67892;PMS7003;54688;52.376;16.744;2023-10-19T16:56:56;60;45;
67892;PMS7003;54688;52.376;16.744;2023-10-19T16:59:58;56;44;
67892;PMS7003;54688;52.376;16.744;2023-10-19T17:03:00;52;43;
67892;PMS7003;54688;52.376;16.744;2023-10-19T17:06:02;56;44;
67892;PMS7003;54688;52.376;16.744;2023-10-19T17:09:14;56;44;
67892;PMS7003;54688;52.376;16.744;2023-10-19T17:12:17;55;45;
67892;PMS7003;54688;52.376;16.744;2023-10-19T17:15:19;56;44;
67892;PMS7003;54688;52.376;16.744;2023-10-19T17:18:21;55;45;
67892;PMS7003;54688;52.376;16.744;2023-10-19T17:21:24;60;48;
67892;PMS7003;54688;52.376;16.744;2023-10-19T17:24:26;65;51;
67892;PMS7003;54688;52.376;16.744;2023-10-19T17:27:28;60;46;
67892;PMS7003;54688;52.376;16.744;2023-10-19T17:30:30;63;48;
67892;PMS7003;54688;52.376;16.744;2023-10-19T17:33:32;59;47;
67892;PMS7003;54688;52.376;16.744;2023-10-19T17:36:34;60;47;
67892;PMS7003;54688;52.376;16.744;2023-10-19T17:39:36;61;46;
67892;PMS7003;54688;52.376;16.744;2023-10-19T17:42:38;55;44;
67892;PMS7003;54688;52.376;16.744;2023-10-19T17:45:45;57;46;
67892;PMS7003;54688;52.376;16.744;2023-10-19T17:48:47;62;48;
67892;PMS7003;54688;52.376;16.744;2023-10-19T17:51:49;58;46;
67892;PMS7003;54688;52.376;16.744;2023-10-19T17:54:51;58;46;
67892;PMS7003;54688;52.376;16.744;2023-10-19T17:57:53;59;46;
67892;PMS7003;54688;52.376;16.744;2023-10-19T18:00:56;61;46;
67892;PMS7003;54688;52.376;16.744;2023-10-19T18:03:58;57;45;
67892;PMS7003;54688;52.376;16.744;2023-10-19T18:07:00;57;45;
67892;PMS7003;54688;52.376;16.744;2023-10-19T18:10:03;56;45;
67892;PMS7003;54688;52.376;16.744;2023-10-19T18:13:05;58;48;
67892;PMS7003;54688;52.376;16.744;2023-10-19T18:16:07;58;47;
67892;PMS7003;54688;52.376;16.744;2023-10-19T18:19:10;55;43;
67892;PMS7003;54688;52.376;16.744;2023-10-19T18:22:12;60;48;
67892;PMS7003;54688;52.376;16.744;2023-10-19T18:25:15;60;48;
67892;PMS7003;54688;52.376;16.744;2023-10-19T18:28:17;64;50;
67892;PMS7003;54688;52.376;16.744;2023-10-19T18:31:19;62;49;
67892;PMS7003;54688;52.376;16.744;2023-10-19T18:34:21;58;48;
67892;PMS7003;54688;52.376;16.744;2023-10-19T18:37:23;61;49;
67892;PMS7003;54688;52.376;16.744;2023-10-19T18:40:25;56;45;
67892;PMS7003;54688;52.376;16.744;2023-10-19T18:43:28;60;48;
67892;PMS7003;54688;52.376;16.744;2023-10-19T18:46:30;63;48;
67892;PMS7003;54688;52.376;16.744;2023-10-19T18:49:33;63;47;
67892;PMS7003;54688;52.376;16.744;2023-10-19T18:52:35;63;49;
67892;PMS7003;54688;52.376;16.744;2023-10-19T18:58:36;63;49;
67892;PMS7003;54688;52.376;16.744;2023-10-19T19:01:39;62;47;
67892;PMS7003;54688;52.376;16.744;2023-10-19T19:04:41;57;46;
67892;PMS7003;54688;52.376;16.744;2023-10-19T19:07:44;61;47;
67892;PMS7003;54688;52.376;16.744;2023-10-19T19:10:47;57;45;
67892;PMS7003;54688;52.376;16.744;2023-10-19T19:13:49;61;48;
67892;PMS7003;54688;52.376;16.744;2023-10-19T19:16:51;60;46;
67892;PMS7003;54688;52.376;16.744;2023-10-19T19:22:52;59;49;
67892;PMS7003;54688;52.376;16.744;2023-10-19T19:25:55;58;46;
67892;PMS7003;54688;52.376;16.744;2023-10-19T19:28:57;64;48;
67892;PMS7003;54688;52.376;16.744;2023-10-19T19:31:59;62;48;
67892;PMS7003;54688;52.376;16.744;2023-10-19T19:35:02;62;48;
67892;PMS7003;54688;52.376;16.744;2023-10-19T19:38:04;63;50;
67892;PMS7003;54688;52.376;16.744;2023-10-19T19:41:06;61;48;
67892;PMS7003;54688;52.376;16.744;2023-10-19T19:44:09;59;47;
67892;PMS7003;54688;52.376;16.744;2023-10-19T19:47:12;61;47;
67892;PMS7003;54688;52.376;16.744;2023-10-19T19:50:13;57;45;
67892;PMS7003;54688;52.376;16.744;2023-10-19T19:53:16;65;49;
67892;PMS7003;54688;52.376;16.744;2023-10-19T19:56:18;58;45;
67892;PMS7003;54688;52.376;16.744;2023-10-19T19:59:21;63;48;
67892;PMS7003;54688;52.376;16.744;2023-10-19T20:02:23;58;47;
67892;PMS7003;54688;52.376;16.744;2023-10-19T20:05:27;62;50;
67892;PMS7003;54688;52.376;16.744;2023-10-19T20:08:29;65;49;
67892;PMS7003;54688;52.376;16.744;2023-10-19T20:11:31;62;48;